sensor_id;sensor_type;location;lat;lon;timestamp;P1;durP1;ratioP1;P2;durP2;ratioP2
21215;SDS011;10765;50.954;5.322;2023-08-06T00:00:57;5.00;;;2.90;;
21215;SDS011;10765;50.954;5.322;2023-08-06T00:03:24;4.17;;;2.70;;
21215;SDS011;10765;50.954;5.322;2023-08-06T00:05:50;3.87;;;2.63;;
21215;SDS011;10765;50.954;5.322;2023-08-06T00:08:17;5.07;;;2.63;;
21215;SDS011;10765;50.954;5.322;2023-08-06T00:10:44;6.57;;;2.90;;
21215;SDS011;10765;50.954;5.322;2023-08-06T00:13:15;3.73;;;2.40;;
21215;SDS011;10765;50.954;5.322;2023-08-06T00:15:42;3.80;;;2.20;;
21215;SDS011;10765;50.954;5.322;2023-08-06T00:18:08;4.87;;;2.40;;
21215;SDS011;10765;50.954;5.322;2023-08-06T00:20:38;5.30;;;2.47;;
21215;SDS011;10765;50.954;5.322;2023-08-06T00:23:06;5.93;;;2.33;;
21215;SDS011;10765;50.954;5.322;2023-08-06T00:25:33;7.00;;;2.80;;
21215;SDS011;10765;50.954;5.322;2023-08-06T00:28:00;3.63;;;2.40;;
21215;SDS011;10765;50.954;5.322;2023-08-06T00:30:28;4.33;;;2.17;;
21215;SDS011;10765;50.954;5.322;2023-08-06T00:32:55;4.43;;;2.10;;
21215;SDS011;10765;50.954;5.322;2023-08-06T00:35:22;4.13;;;2.20;;
21215;SDS011;10765;50.954;5.322;2023-08-06T00:37:49;7.50;;;2.50;;
21215;SDS011;10765;50.954;5.322;2023-08-06T00:40:16;4.97;;;1.93;;
21215;SDS011;10765;50.954;5.322;2023-08-06T00:42:45;5.03;;;2.00;;
21215;SDS011;10765;50.954;5.322;2023-08-06T00:45:12;4.23;;;2.03;;
21215;SDS011;10765;50.954;5.322;2023-08-06T00:47:41;5.23;;;2.27;;
21215;SDS011;10765;50.954;5.322;2023-08-06T00:50:08;5.27;;;2.10;;
21215;SDS011;10765;50.954;5.322;2023-08-06T00:52:35;4.73;;;2.00;;
21215;SDS011;10765;50.954;5.322;2023-08-06T00:55:03;6.30;;;2.37;;
21215;SDS011;10765;50.954;5.322;2023-08-06T00:57:30;6.03;;;2.03;;
21215;SDS011;10765;50.954;5.322;2023-08-06T00:59:57;5.27;;;2.23;;
21215;SDS011;10765;50.954;5.322;2023-08-06T01:02:24;4.37;;;1.80;;
21215;SDS011;10765;50.954;5.322;2023-08-06T01:04:52;5.37;;;2.13;;
21215;SDS011;10765;50.954;5.322;2023-08-06T01:07:21;3.80;;;2.07;;
21215;SDS011;10765;50.954;5.322;2023-08-06T01:10:01;5.30;;;2.27;;
21215;SDS011;10765;50.954;5.322;2023-08-06T01:12:42;4.17;;;1.87;;
21215;SDS011;10765;50.954;5.322;2023-08-06T01:15:15;4.10;;;2.00;;
21215;SDS011;10765;50.954;5.322;2023-08-06T01:17:45;2.83;;;1.70;;
21215;SDS011;10765;50.954;5.322;2023-08-06T01:20:14;4.10;;;1.50;;
21215;SDS011;10765;50.954;5.322;2023-08-06T01:22:43;3.60;;;1.87;;
21215;SDS011;10765;50.954;5.322;2023-08-06T01:25:10;5.40;;;2.20;;
21215;SDS011;10765;50.954;5.322;2023-08-06T01:27:42;4.03;;;1.97;;
21215;SDS011;10765;50.954;5.322;2023-08-06T01:30:15;4.27;;;2.07;;
21215;SDS011;10765;50.954;5.322;2023-08-06T01:32:44;3.50;;;1.87;;
21215;SDS011;10765;50.954;5.322;2023-08-06T01:35:16;4.53;;;1.90;;
21215;SDS011;10765;50.954;5.322;2023-08-06T01:37:46;4.40;;;2.03;;
21215;SDS011;10765;50.954;5.322;2023-08-06T01:40:14;4.57;;;1.90;;
21215;SDS011;10765;50.954;5.322;2023-08-06T01:42:41;3.17;;;2.00;;
21215;SDS011;10765;50.954;5.322;2023-08-06T01:45:08;4.57;;;2.27;;
21215;SDS011;10765;50.954;5.322;2023-08-06T01:47:36;4.23;;;2.00;;
21215;SDS011;10765;50.954;5.322;2023-08-06T01:50:03;4.33;;;2.07;;
21215;SDS011;10765;50.954;5.322;2023-08-06T01:52:30;6.10;;;2.00;;
21215;SDS011;10765;50.954;5.322;2023-08-06T01:54:59;3.43;;;2.00;;
21215;SDS011;10765;50.954;5.322;2023-08-06T01:57:25;5.10;;;2.30;;
21215;SDS011;10765;50.954;5.322;2023-08-06T01:59:52;4.07;;;2.10;;
21215;SDS011;10765;50.954;5.322;2023-08-06T02:02:19;3.43;;;2.00;;
21215;SDS011;10765;50.954;5.322;2023-08-06T02:04:46;5.73;;;2.57;;
21215;SDS011;10765;50.954;5.322;2023-08-06T02:07:13;4.07;;;2.00;;
21215;SDS011;10765;50.954;5.322;2023-08-06T02:09:40;4.07;;;2.00;;
21215;SDS011;10765;50.954;5.322;2023-08-06T02:12:08;4.43;;;2.20;;
21215;SDS011;10765;50.954;5.322;2023-08-06T02:14:35;2.63;;;2.10;;
21215;SDS011;10765;50.954;5.322;2023-08-06T02:17:02;3.70;;;2.10;;
21215;SDS011;10765;50.954;5.322;2023-08-06T02:19:29;3.23;;;1.70;;
21215;SDS011;10765;50.954;5.322;2023-08-06T02:21:56;5.30;;;1.90;;
21215;SDS011;10765;50.954;5.322;2023-08-06T02:24:23;4.23;;;1.93;;
21215;SDS011;10765;50.954;5.322;2023-08-06T02:26:49;5.33;;;2.10;;
21215;SDS011;10765;50.954;5.322;2023-08-06T02:29:21;2.57;;;2.00;;
21215;SDS011;10765;50.954;5.322;2023-08-06T02:31:48;3.73;;;1.90;;
21215;SDS011;10765;50.954;5.322;2023-08-06T02:34:15;3.27;;;2.20;;
21215;SDS011;10765;50.954;5.322;2023-08-06T02:36:42;3.43;;;2.07;;
21215;SDS011;10765;50.954;5.322;2023-08-06T02:39:09;3.97;;;2.20;;
21215;SDS011;10765;50.954;5.322;2023-08-06T02:41:36;3.63;;;1.90;;
21215;SDS011;10765;50.954;5.322;2023-08-06T02:44:03;4.33;;;1.87;;
21215;SDS011;10765;50.954;5.322;2023-08-06T02:46:31;3.47;;;2.10;;
21215;SDS011;10765;50.954;5.322;2023-08-06T02:48:58;4.33;;;2.20;;
21215;SDS011;10765;50.954;5.322;2023-08-06T02:51:25;3.70;;;1.90;;
21215;SDS011;10765;50.954;5.322;2023-08-06T02:53:52;3.40;;;2.20;;
21215;SDS011;10765;50.954;5.322;2023-08-06T02:56:19;3.83;;;2.27;;
21215;SDS011;10765;50.954;5.322;2023-08-06T02:58:46;2.33;;;2.00;;
21215;SDS011;10765;50.954;5.322;2023-08-06T03:01:15;5.73;;;2.57;;
21215;SDS011;10765;50.954;5.322;2023-08-06T03:03:43;3.17;;;2.20;;
21215;SDS011;10765;50.954;5.322;2023-08-06T03:06:10;4.27;;;2.27;;
21215;SDS011;10765;50.954;5.322;2023-08-06T03:08:37;2.70;;;2.30;;
21215;SDS011;10765;50.954;5.322;2023-08-06T03:11:04;7.10;;;2.37;;
21215;SDS011;10765;50.954;5.322;2023-08-06T03:13:31;4.17;;;2.20;;
21215;SDS011;10765;50.954;5.322;2023-08-06T03:15:58;4.23;;;2.30;;
21215;SDS011;10765;50.954;5.322;2023-08-06T03:18:26;6.97;;;2.47;;
21215;SDS011;10765;50.954;5.322;2023-08-06T03:20:54;4.13;;;2.40;;
21215;SDS011;10765;50.954;5.322;2023-08-06T03:23:22;5.10;;;2.40;;
21215;SDS011;10765;50.954;5.322;2023-08-06T03:25:48;3.40;;;2.43;;
21215;SDS011;10765;50.954;5.322;2023-08-06T03:28:15;6.07;;;2.77;;
21215;SDS011;10765;50.954;5.322;2023-08-06T03:30:42;3.77;;;2.43;;
21215;SDS011;10765;50.954;5.322;2023-08-06T03:33:09;2.83;;;2.50;;
21215;SDS011;10765;50.954;5.322;2023-08-06T03:35:36;3.70;;;2.37;;
21215;SDS011;10765;50.954;5.322;2023-08-06T03:38:04;4.83;;;3.20;;
21215;SDS011;10765;50.954;5.322;2023-08-06T03:40:31;5.03;;;3.50;;
21215;SDS011;10765;50.954;5.322;2023-08-06T03:43:00;6.87;;;3.60;;
21215;SDS011;10765;50.954;5.322;2023-08-06T03:45:27;6.27;;;3.70;;
21215;SDS011;10765;50.954;5.322;2023-08-06T03:47:54;7.23;;;5.20;;
21215;SDS011;10765;50.954;5.322;2023-08-06T03:50:21;7.83;;;5.70;;
21215;SDS011;10765;50.954;5.322;2023-08-06T03:52:48;8.20;;;5.70;;
21215;SDS011;10765;50.954;5.322;2023-08-06T03:55:16;8.57;;;5.50;;
21215;SDS011;10765;50.954;5.322;2023-08-06T03:57:43;6.97;;;5.97;;
21215;SDS011;10765;50.954;5.322;2023-08-06T04:00:10;8.30;;;6.10;;
21215;SDS011;10765;50.954;5.322;2023-08-06T04:02:38;7.53;;;6.43;;
21215;SDS011;10765;50.954;5.322;2023-08-06T04:05:04;10.07;;;6.87;;
21215;SDS011;10765;50.954;5.322;2023-08-06T04:07:32;8.73;;;6.97;;
21215;SDS011;10765;50.954;5.322;2023-08-06T04:09:59;11.57;;;7.00;;
21215;SDS011;10765;50.954;5.322;2023-08-06T04:12:29;9.67;;;7.10;;
21215;SDS011;10765;50.954;5.322;2023-08-06T04:14:57;10.07;;;7.73;;
21215;SDS011;10765;50.954;5.322;2023-08-06T04:17:24;11.47;;;7.37;;
21215;SDS011;10765;50.954;5.322;2023-08-06T04:19:52;9.77;;;7.33;;
21215;SDS011;10765;50.954;5.322;2023-08-06T04:22:20;11.63;;;8.03;;
21215;SDS011;10765;50.954;5.322;2023-08-06T04:24:47;10.07;;;7.70;;
21215;SDS011;10765;50.954;5.322;2023-08-06T04:27:15;9.60;;;7.80;;
21215;SDS011;10765;50.954;5.322;2023-08-06T04:29:44;12.40;;;9.07;;
21215;SDS011;10765;50.954;5.322;2023-08-06T04:32:12;10.50;;;8.83;;
21215;SDS011;10765;50.954;5.322;2023-08-06T04:34:39;12.33;;;9.10;;
21215;SDS011;10765;50.954;5.322;2023-08-06T04:37:07;11.70;;;9.40;;
21215;SDS011;10765;50.954;5.322;2023-08-06T04:39:34;11.07;;;9.27;;
21215;SDS011;10765;50.954;5.322;2023-08-06T04:42:00;15.97;;;10.03;;
21215;SDS011;10765;50.954;5.322;2023-08-06T04:44:27;13.77;;;9.57;;
21215;SDS011;10765;50.954;5.322;2023-08-06T04:46:56;14.80;;;10.77;;
21215;SDS011;10765;50.954;5.322;2023-08-06T04:49:23;14.33;;;10.07;;
21215;SDS011;10765;50.954;5.322;2023-08-06T04:51:51;15.33;;;9.90;;
21215;SDS011;10765;50.954;5.322;2023-08-06T04:54:18;14.80;;;10.10;;
21215;SDS011;10765;50.954;5.322;2023-08-06T04:56:45;12.63;;;10.37;;
21215;SDS011;10765;50.954;5.322;2023-08-06T04:59:12;15.83;;;11.03;;
21215;SDS011;10765;50.954;5.322;2023-08-06T05:01:38;16.40;;;11.23;;
21215;SDS011;10765;50.954;5.322;2023-08-06T05:04:07;17.23;;;12.60;;
21215;SDS011;10765;50.954;5.322;2023-08-06T05:06:34;12.73;;;10.10;;
21215;SDS011;10765;50.954;5.322;2023-08-06T05:09:03;11.33;;;9.23;;
21215;SDS011;10765;50.954;5.322;2023-08-06T05:11:31;11.60;;;8.83;;
21215;SDS011;10765;50.954;5.322;2023-08-06T05:13:57;10.63;;;8.13;;
21215;SDS011;10765;50.954;5.322;2023-08-06T05:16:24;9.93;;;7.67;;
21215;SDS011;10765;50.954;5.322;2023-08-06T05:18:51;10.40;;;7.60;;
21215;SDS011;10765;50.954;5.322;2023-08-06T05:21:19;9.03;;;7.17;;
21215;SDS011;10765;50.954;5.322;2023-08-06T05:23:46;8.57;;;6.87;;
21215;SDS011;10765;50.954;5.322;2023-08-06T05:26:13;8.87;;;7.40;;
21215;SDS011;10765;50.954;5.322;2023-08-06T05:28:43;9.77;;;7.77;;
21215;SDS011;10765;50.954;5.322;2023-08-06T05:31:10;8.23;;;7.27;;
21215;SDS011;10765;50.954;5.322;2023-08-06T05:33:37;7.10;;;6.20;;
21215;SDS011;10765;50.954;5.322;2023-08-06T05:36:04;6.57;;;5.40;;
21215;SDS011;10765;50.954;5.322;2023-08-06T05:38:32;5.30;;;4.57;;
21215;SDS011;10765;50.954;5.322;2023-08-06T05:40:59;5.03;;;4.53;;
21215;SDS011;10765;50.954;5.322;2023-08-06T05:43:26;6.60;;;4.50;;
21215;SDS011;10765;50.954;5.322;2023-08-06T05:45:53;4.37;;;3.97;;
21215;SDS011;10765;50.954;5.322;2023-08-06T05:48:20;3.30;;;3.03;;
21215;SDS011;10765;50.954;5.322;2023-08-06T05:50:49;2.90;;;2.70;;
21215;SDS011;10765;50.954;5.322;2023-08-06T05:53:16;3.23;;;2.93;;
21215;SDS011;10765;50.954;5.322;2023-08-06T05:55:45;5.33;;;3.37;;
21215;SDS011;10765;50.954;5.322;2023-08-06T05:58:11;4.07;;;3.67;;
21215;SDS011;10765;50.954;5.322;2023-08-06T06:00:38;4.40;;;4.00;;
21215;SDS011;10765;50.954;5.322;2023-08-06T06:03:05;6.20;;;5.10;;
21215;SDS011;10765;50.954;5.322;2023-08-06T06:05:32;7.53;;;6.40;;
21215;SDS011;10765;50.954;5.322;2023-08-06T06:07:59;6.83;;;6.13;;
21215;SDS011;10765;50.954;5.322;2023-08-06T06:10:26;7.37;;;6.63;;
21215;SDS011;10765;50.954;5.322;2023-08-06T06:12:57;8.07;;;6.80;;
21215;SDS011;10765;50.954;5.322;2023-08-06T06:15:24;7.37;;;6.07;;
21215;SDS011;10765;50.954;5.322;2023-08-06T06:17:51;6.20;;;5.37;;
21215;SDS011;10765;50.954;5.322;2023-08-06T06:20:18;7.03;;;5.73;;
21215;SDS011;10765;50.954;5.322;2023-08-06T06:22:45;6.27;;;5.40;;
21215;SDS011;10765;50.954;5.322;2023-08-06T06:25:12;3.53;;;3.23;;
21215;SDS011;10765;50.954;5.322;2023-08-06T06:27:38;3.50;;;3.20;;
21215;SDS011;10765;50.954;5.322;2023-08-06T06:30:07;3.47;;;3.27;;
21215;SDS011;10765;50.954;5.322;2023-08-06T06:32:36;3.53;;;3.23;;
21215;SDS011;10765;50.954;5.322;2023-08-06T06:35:05;3.87;;;3.57;;
21215;SDS011;10765;50.954;5.322;2023-08-06T06:37:32;5.20;;;4.07;;
21215;SDS011;10765;50.954;5.322;2023-08-06T06:39:59;4.93;;;4.20;;
21215;SDS011;10765;50.954;5.322;2023-08-06T06:42:26;6.33;;;5.07;;
21215;SDS011;10765;50.954;5.322;2023-08-06T06:44:52;5.50;;;5.10;;
21215;SDS011;10765;50.954;5.322;2023-08-06T06:47:21;6.87;;;5.40;;
21215;SDS011;10765;50.954;5.322;2023-08-06T06:49:48;6.33;;;5.73;;
21215;SDS011;10765;50.954;5.322;2023-08-06T06:52:14;6.77;;;6.17;;
21215;SDS011;10765;50.954;5.322;2023-08-06T06:54:41;7.10;;;6.40;;
21215;SDS011;10765;50.954;5.322;2023-08-06T06:57:08;8.27;;;7.43;;
21215;SDS011;10765;50.954;5.322;2023-08-06T06:59:35;7.87;;;7.17;;
21215;SDS011;10765;50.954;5.322;2023-08-06T07:02:03;9.00;;;8.10;;
21215;SDS011;10765;50.954;5.322;2023-08-06T07:04:32;8.97;;;8.07;;
21215;SDS011;10765;50.954;5.322;2023-08-06T07:06:58;10.30;;;8.30;;
21215;SDS011;10765;50.954;5.322;2023-08-06T07:09:25;9.00;;;8.13;;
21215;SDS011;10765;50.954;5.322;2023-08-06T07:11:52;9.17;;;8.27;;
21215;SDS011;10765;50.954;5.322;2023-08-06T07:14:19;10.10;;;9.13;;
21215;SDS011;10765;50.954;5.322;2023-08-06T07:16:46;9.60;;;8.70;;
21215;SDS011;10765;50.954;5.322;2023-08-06T07:19:13;9.30;;;8.30;;
21215;SDS011;10765;50.954;5.322;2023-08-06T07:21:41;8.23;;;7.43;;
21215;SDS011;10765;50.954;5.322;2023-08-06T07:24:08;6.63;;;5.87;;
21215;SDS011;10765;50.954;5.322;2023-08-06T07:26:35;5.20;;;4.50;;
21215;SDS011;10765;50.954;5.322;2023-08-06T07:29:02;5.17;;;4.07;;
21215;SDS011;10765;50.954;5.322;2023-08-06T07:31:29;4.93;;;3.30;;
21215;SDS011;10765;50.954;5.322;2023-08-06T07:33:56;3.73;;;3.20;;
21215;SDS011;10765;50.954;5.322;2023-08-06T07:36:23;4.70;;;3.30;;
21215;SDS011;10765;50.954;5.322;2023-08-06T07:38:51;4.13;;;3.10;;
21215;SDS011;10765;50.954;5.322;2023-08-06T07:41:21;6.57;;;3.80;;
21215;SDS011;10765;50.954;5.322;2023-08-06T07:43:48;4.77;;;2.93;;
21215;SDS011;10765;50.954;5.322;2023-08-06T07:46:15;9.50;;;3.73;;
21215;SDS011;10765;50.954;5.322;2023-08-06T07:48:42;7.00;;;3.40;;
21215;SDS011;10765;50.954;5.322;2023-08-06T07:51:09;6.13;;;3.73;;
21215;SDS011;10765;50.954;5.322;2023-08-06T07:53:35;5.83;;;3.37;;
21215;SDS011;10765;50.954;5.322;2023-08-06T07:56:04;7.47;;;3.67;;
21215;SDS011;10765;50.954;5.322;2023-08-06T07:58:30;7.93;;;3.87;;
21215;SDS011;10765;50.954;5.322;2023-08-06T08:00:57;7.47;;;3.80;;
21215;SDS011;10765;50.954;5.322;2023-08-06T08:03:24;4.87;;;3.47;;
21215;SDS011;10765;50.954;5.322;2023-08-06T08:05:53;7.83;;;4.00;;
21215;SDS011;10765;50.954;5.322;2023-08-06T08:08:22;6.73;;;3.57;;
21215;SDS011;10765;50.954;5.322;2023-08-06T08:10:49;7.13;;;3.57;;
21215;SDS011;10765;50.954;5.322;2023-08-06T08:13:17;8.07;;;4.10;;
21215;SDS011;10765;50.954;5.322;2023-08-06T08:15:44;8.90;;;4.23;;
21215;SDS011;10765;50.954;5.322;2023-08-06T08:18:11;10.20;;;3.83;;
21215;SDS011;10765;50.954;5.322;2023-08-06T08:20:38;8.03;;;4.37;;
21215;SDS011;10765;50.954;5.322;2023-08-06T08:23:05;8.03;;;3.40;;
21215;SDS011;10765;50.954;5.322;2023-08-06T08:25:32;6.43;;;3.40;;
21215;SDS011;10765;50.954;5.322;2023-08-06T08:27:59;6.33;;;2.73;;
21215;SDS011;10765;50.954;5.322;2023-08-06T08:30:27;8.67;;;3.57;;
21215;SDS011;10765;50.954;5.322;2023-08-06T08:32:54;8.27;;;3.67;;
21215;SDS011;10765;50.954;5.322;2023-08-06T08:35:21;7.63;;;3.87;;
21215;SDS011;10765;50.954;5.322;2023-08-06T08:37:48;6.60;;;3.17;;
21215;SDS011;10765;50.954;5.322;2023-08-06T08:40:15;6.20;;;2.97;;
21215;SDS011;10765;50.954;5.322;2023-08-06T08:42:42;9.43;;;3.77;;
21215;SDS011;10765;50.954;5.322;2023-08-06T08:45:11;7.70;;;3.57;;
21215;SDS011;10765;50.954;5.322;2023-08-06T08:47:41;6.93;;;3.40;;
21215;SDS011;10765;50.954;5.322;2023-08-06T08:50:09;7.67;;;3.87;;
21215;SDS011;10765;50.954;5.322;2023-08-06T08:52:38;9.20;;;4.33;;
21215;SDS011;10765;50.954;5.322;2023-08-06T08:55:04;15.83;;;4.83;;
21215;SDS011;10765;50.954;5.322;2023-08-06T08:57:33;7.17;;;4.00;;
21215;SDS011;10765;50.954;5.322;2023-08-06T09:00:00;9.87;;;4.43;;
21215;SDS011;10765;50.954;5.322;2023-08-06T09:02:28;10.47;;;4.00;;
21215;SDS011;10765;50.954;5.322;2023-08-06T09:04:57;9.47;;;4.47;;
21215;SDS011;10765;50.954;5.322;2023-08-06T09:07:27;10.17;;;3.23;;
21215;SDS011;10765;50.954;5.322;2023-08-06T09:09:58;9.17;;;3.33;;
21215;SDS011;10765;50.954;5.322;2023-08-06T09:12:28;9.13;;;2.90;;
21215;SDS011;10765;50.954;5.322;2023-08-06T09:14:55;7.57;;;2.47;;
21215;SDS011;10765;50.954;5.322;2023-08-06T09:17:23;10.57;;;2.60;;
21215;SDS011;10765;50.954;5.322;2023-08-06T09:19:50;11.23;;;2.80;;
21215;SDS011;10765;50.954;5.322;2023-08-06T09:22:18;9.03;;;3.00;;
21215;SDS011;10765;50.954;5.322;2023-08-06T09:24:45;11.03;;;2.50;;
21215;SDS011;10765;50.954;5.322;2023-08-06T09:27:12;8.47;;;2.50;;
21215;SDS011;10765;50.954;5.322;2023-08-06T09:29:40;10.33;;;2.70;;
21215;SDS011;10765;50.954;5.322;2023-08-06T09:32:08;10.87;;;2.70;;
21215;SDS011;10765;50.954;5.322;2023-08-06T09:34:35;8.00;;;2.70;;
21215;SDS011;10765;50.954;5.322;2023-08-06T09:37:05;8.20;;;2.83;;
21215;SDS011;10765;50.954;5.322;2023-08-06T09:39:36;10.30;;;2.50;;
21215;SDS011;10765;50.954;5.322;2023-08-06T09:42:04;8.40;;;2.80;;
21215;SDS011;10765;50.954;5.322;2023-08-06T09:44:31;7.43;;;2.23;;
21215;SDS011;10765;50.954;5.322;2023-08-06T09:46:58;9.13;;;2.60;;
21215;SDS011;10765;50.954;5.322;2023-08-06T09:49:26;11.50;;;2.50;;
21215;SDS011;10765;50.954;5.322;2023-08-06T09:51:54;9.33;;;2.63;;
21215;SDS011;10765;50.954;5.322;2023-08-06T09:54:23;8.00;;;2.30;;
21215;SDS011;10765;50.954;5.322;2023-08-06T09:56:53;6.23;;;2.40;;
21215;SDS011;10765;50.954;5.322;2023-08-06T09:59:20;6.27;;;2.37;;
21215;SDS011;10765;50.954;5.322;2023-08-06T10:01:47;9.33;;;3.10;;
21215;SDS011;10765;50.954;5.322;2023-08-06T10:04:14;10.07;;;2.43;;
21215;SDS011;10765;50.954;5.322;2023-08-06T10:06:43;8.50;;;2.57;;
21215;SDS011;10765;50.954;5.322;2023-08-06T10:09:14;5.60;;;2.07;;
21215;SDS011;10765;50.954;5.322;2023-08-06T10:11:41;6.77;;;2.63;;
21215;SDS011;10765;50.954;5.322;2023-08-06T10:14:15;6.43;;;2.10;;
21215;SDS011;10765;50.954;5.322;2023-08-06T10:16:46;4.60;;;2.20;;
21215;SDS011;10765;50.954;5.322;2023-08-06T10:19:15;6.70;;;2.10;;
21215;SDS011;10765;50.954;5.322;2023-08-06T10:21:50;5.73;;;2.30;;
21215;SDS011;10765;50.954;5.322;2023-08-06T10:24:45;5.00;;;1.83;;
21215;SDS011;10765;50.954;5.322;2023-08-06T10:27:12;5.40;;;1.70;;
21215;SDS011;10765;50.954;5.322;2023-08-06T10:29:41;5.97;;;2.23;;
21215;SDS011;10765;50.954;5.322;2023-08-06T10:32:07;4.97;;;2.07;;
21215;SDS011;10765;50.954;5.322;2023-08-06T10:37:19;4.20;;;1.90;;
21215;SDS011;10765;50.954;5.322;2023-08-06T10:39:48;5.43;;;1.90;;
21215;SDS011;10765;50.954;5.322;2023-08-06T10:42:22;5.83;;;2.37;;
21215;SDS011;10765;50.954;5.322;2023-08-06T10:45:13;5.83;;;2.20;;
21215;SDS011;10765;50.954;5.322;2023-08-06T10:47:41;5.67;;;1.90;;
21215;SDS011;10765;50.954;5.322;2023-08-06T10:50:10;3.20;;;1.60;;
21215;SDS011;10765;50.954;5.322;2023-08-06T10:52:38;5.57;;;1.80;;
21215;SDS011;10765;50.954;5.322;2023-08-06T10:55:06;5.23;;;1.50;;
21215;SDS011;10765;50.954;5.322;2023-08-06T10:57:34;2.23;;;1.30;;
21215;SDS011;10765;50.954;5.322;2023-08-06T11:00:01;5.63;;;1.90;;
21215;SDS011;10765;50.954;5.322;2023-08-06T11:02:29;5.30;;;1.93;;
21215;SDS011;10765;50.954;5.322;2023-08-06T11:05:04;4.43;;;2.00;;
21215;SDS011;10765;50.954;5.322;2023-08-06T11:07:31;5.13;;;2.20;;
21215;SDS011;10765;50.954;5.322;2023-08-06T11:10:00;7.10;;;2.07;;
21215;SDS011;10765;50.954;5.322;2023-08-06T11:12:29;3.30;;;2.00;;
21215;SDS011;10765;50.954;5.322;2023-08-06T11:14:56;3.83;;;1.80;;
21215;SDS011;10765;50.954;5.322;2023-08-06T11:17:22;5.10;;;1.50;;
21215;SDS011;10765;50.954;5.322;2023-08-06T11:19:51;4.57;;;1.60;;
21215;SDS011;10765;50.954;5.322;2023-08-06T11:22:20;3.20;;;1.60;;
21215;SDS011;10765;50.954;5.322;2023-08-06T11:24:47;4.73;;;1.63;;
21215;SDS011;10765;50.954;5.322;2023-08-06T11:27:14;4.57;;;1.40;;
21215;SDS011;10765;50.954;5.322;2023-08-06T11:29:42;2.77;;;1.60;;
21215;SDS011;10765;50.954;5.322;2023-08-06T11:32:10;2.93;;;1.40;;
21215;SDS011;10765;50.954;5.322;2023-08-06T11:34:37;4.37;;;2.73;;
21215;SDS011;10765;50.954;5.322;2023-08-06T11:37:06;3.10;;;1.93;;
21215;SDS011;10765;50.954;5.322;2023-08-06T11:39:33;4.23;;;1.53;;
21215;SDS011;10765;50.954;5.322;2023-08-06T11:42:02;3.80;;;1.50;;
21215;SDS011;10765;50.954;5.322;2023-08-06T11:44:29;3.80;;;1.80;;
21215;SDS011;10765;50.954;5.322;2023-08-06T11:46:58;6.83;;;1.90;;
21215;SDS011;10765;50.954;5.322;2023-08-06T11:49:39;5.57;;;2.00;;
21215;SDS011;10765;50.954;5.322;2023-08-06T11:52:17;4.70;;;1.77;;
21215;SDS011;10765;50.954;5.322;2023-08-06T11:54:59;4.47;;;1.53;;
21215;SDS011;10765;50.954;5.322;2023-08-06T11:57:28;6.37;;;1.60;;
21215;SDS011;10765;50.954;5.322;2023-08-06T11:59:58;5.73;;;1.60;;
21215;SDS011;10765;50.954;5.322;2023-08-06T12:02:27;3.47;;;1.30;;
21215;SDS011;10765;50.954;5.322;2023-08-06T12:05:02;2.87;;;1.10;;
21215;SDS011;10765;50.954;5.322;2023-08-06T12:07:32;4.80;;;1.20;;
21215;SDS011;10765;50.954;5.322;2023-08-06T12:10:04;4.60;;;1.63;;
21215;SDS011;10765;50.954;5.322;2023-08-06T12:12:31;5.40;;;1.47;;
21215;SDS011;10765;50.954;5.322;2023-08-06T12:14:58;4.30;;;1.97;;
21215;SDS011;10765;50.954;5.322;2023-08-06T12:17:25;4.60;;;1.40;;
21215;SDS011;10765;50.954;5.322;2023-08-06T12:19:53;4.73;;;1.60;;
21215;SDS011;10765;50.954;5.322;2023-08-06T12:22:21;5.03;;;2.00;;
21215;SDS011;10765;50.954;5.322;2023-08-06T12:24:49;2.77;;;1.40;;
21215;SDS011;10765;50.954;5.322;2023-08-06T12:27:16;2.83;;;1.50;;
21215;SDS011;10765;50.954;5.322;2023-08-06T12:29:43;3.53;;;1.57;;
21215;SDS011;10765;50.954;5.322;2023-08-06T12:32:12;4.40;;;1.60;;
21215;SDS011;10765;50.954;5.322;2023-08-06T12:34:39;3.27;;;1.70;;
21215;SDS011;10765;50.954;5.322;2023-08-06T12:37:07;6.20;;;1.50;;
21215;SDS011;10765;50.954;5.322;2023-08-06T12:39:34;4.87;;;1.90;;
21215;SDS011;10765;50.954;5.322;2023-08-06T12:42:04;6.47;;;1.67;;
21215;SDS011;10765;50.954;5.322;2023-08-06T12:44:32;6.60;;;1.50;;
21215;SDS011;10765;50.954;5.322;2023-08-06T12:46:59;3.87;;;1.33;;
21215;SDS011;10765;50.954;5.322;2023-08-06T12:49:26;8.43;;;1.83;;
21215;SDS011;10765;50.954;5.322;2023-08-06T12:51:53;6.73;;;2.10;;
21215;SDS011;10765;50.954;5.322;2023-08-06T12:54:22;8.73;;;1.73;;
21215;SDS011;10765;50.954;5.322;2023-08-06T12:56:49;4.83;;;1.47;;
21215;SDS011;10765;50.954;5.322;2023-08-06T12:59:18;3.40;;;1.67;;
21215;SDS011;10765;50.954;5.322;2023-08-06T13:01:45;5.40;;;1.50;;
21215;SDS011;10765;50.954;5.322;2023-08-06T13:04:13;4.60;;;1.33;;
21215;SDS011;10765;50.954;5.322;2023-08-06T13:06:40;5.43;;;1.60;;
21215;SDS011;10765;50.954;5.322;2023-08-06T13:09:07;3.53;;;1.53;;
21215;SDS011;10765;50.954;5.322;2023-08-06T13:11:35;2.93;;;1.03;;
21215;SDS011;10765;50.954;5.322;2023-08-06T13:14:06;3.40;;;1.27;;
21215;SDS011;10765;50.954;5.322;2023-08-06T13:16:35;3.80;;;1.07;;
21215;SDS011;10765;50.954;5.322;2023-08-06T13:19:05;2.90;;;1.47;;
21215;SDS011;10765;50.954;5.322;2023-08-06T13:21:33;3.17;;;1.00;;
21215;SDS011;10765;50.954;5.322;2023-08-06T13:24:00;2.50;;;1.17;;
21215;SDS011;10765;50.954;5.322;2023-08-06T13:26:27;4.60;;;1.40;;
21215;SDS011;10765;50.954;5.322;2023-08-06T13:28:54;4.23;;;1.40;;
21215;SDS011;10765;50.954;5.322;2023-08-06T13:31:22;4.53;;;1.50;;
21215;SDS011;10765;50.954;5.322;2023-08-06T13:33:51;2.80;;;1.40;;
21215;SDS011;10765;50.954;5.322;2023-08-06T13:36:20;4.17;;;1.50;;
21215;SDS011;10765;50.954;5.322;2023-08-06T13:38:47;6.80;;;1.93;;
21215;SDS011;10765;50.954;5.322;2023-08-06T13:41:14;4.80;;;1.90;;
21215;SDS011;10765;50.954;5.322;2023-08-06T13:43:41;3.60;;;1.73;;
21215;SDS011;10765;50.954;5.322;2023-08-06T13:46:09;4.30;;;1.70;;
21215;SDS011;10765;50.954;5.322;2023-08-06T13:48:39;6.90;;;2.00;;
21215;SDS011;10765;50.954;5.322;2023-08-06T13:51:08;6.50;;;2.30;;
21215;SDS011;10765;50.954;5.322;2023-08-06T13:53:35;5.27;;;2.07;;
21215;SDS011;10765;50.954;5.322;2023-08-06T13:56:02;6.03;;;2.27;;
21215;SDS011;10765;50.954;5.322;2023-08-06T13:58:30;4.20;;;1.77;;
21215;SDS011;10765;50.954;5.322;2023-08-06T14:00:57;4.10;;;1.80;;
21215;SDS011;10765;50.954;5.322;2023-08-06T14:03:24;5.70;;;1.90;;
21215;SDS011;10765;50.954;5.322;2023-08-06T14:05:51;4.60;;;1.90;;
21215;SDS011;10765;50.954;5.322;2023-08-06T14:08:21;4.30;;;1.40;;
21215;SDS011;10765;50.954;5.322;2023-08-06T14:10:49;6.23;;;1.53;;
21215;SDS011;10765;50.954;5.322;2023-08-06T14:13:16;4.70;;;1.67;;
21215;SDS011;10765;50.954;5.322;2023-08-06T14:15:43;2.73;;;1.30;;
21215;SDS011;10765;50.954;5.322;2023-08-06T14:18:12;2.77;;;1.23;;
21215;SDS011;10765;50.954;5.322;2023-08-06T14:20:39;3.20;;;1.27;;
21215;SDS011;10765;50.954;5.322;2023-08-06T14:23:06;5.73;;;1.20;;
21215;SDS011;10765;50.954;5.322;2023-08-06T14:25:34;2.80;;;1.20;;
21215;SDS011;10765;50.954;5.322;2023-08-06T14:28:01;3.47;;;0.90;;
21215;SDS011;10765;50.954;5.322;2023-08-06T14:30:28;2.17;;;0.73;;
21215;SDS011;10765;50.954;5.322;2023-08-06T14:32:55;1.53;;;0.80;;
21215;SDS011;10765;50.954;5.322;2023-08-06T14:35:21;1.77;;;0.90;;
21215;SDS011;10765;50.954;5.322;2023-08-06T14:37:48;1.33;;;0.63;;
21215;SDS011;10765;50.954;5.322;2023-08-06T14:40:15;0.60;;;0.50;;
21215;SDS011;10765;50.954;5.322;2023-08-06T14:42:44;0.93;;;0.47;;
21215;SDS011;10765;50.954;5.322;2023-08-06T14:45:11;0.97;;;0.60;;
21215;SDS011;10765;50.954;5.322;2023-08-06T14:47:37;2.43;;;0.70;;
21215;SDS011;10765;50.954;5.322;2023-08-06T14:50:05;1.23;;;0.50;;
21215;SDS011;10765;50.954;5.322;2023-08-06T14:52:32;5.37;;;0.80;;